Time;durP1;ratioP1;P1;durP2;ratioP2;P2;SDS_P1;SDS_P2;PMS_P1;PMS_P2;Temp;Humidity;BMP_temperature;BMP_pressure;BME280_temperature;BME280_humidity;BME280_pressure;Samples;Min_cycle;Max_cycle;Signal;HPM_P1;HPM_P2
2022/09/21 00:00:46;;;;;;;17.00;16.17;;;;;;;6.84;100.00;102546.97;5013336;28;20894;-50
2022/09/21 00:03:15;;;;;;;17.50;16.50;;;;;;;6.82;100.00;102540.94;5013200;28;20439;-46
2022/09/21 00:05:43;;;;;;;17.93;17.17;;;;;;;6.79;100.00;102544.69;5012909;28;20461;-51
2022/09/21 00:08:12;;;;;;;17.67;16.97;;;;;;;6.78;100.00;102542.19;5013496;28;20433;-47
2022/09/21 00:10:41;;;;;;;17.00;16.40;;;;;;;6.78;100.00;102550.97;5013341;28;20488;-48
2022/09/21 00:13:12;;;;;;;17.73;17.03;;;;;;;6.75;100.00;102548.56;5013300;28;20429;-47
2022/09/21 00:15:40;;;;;;;18.80;18.10;;;;;;;6.73;100.00;102545.22;5012895;28;20507;-48
2022/09/21 00:18:10;;;;;;;18.10;17.50;;;;;;;6.71;100.00;102552.47;5012525;28;20903;-51
2022/09/21 00:20:42;;;;;;;18.20;17.50;;;;;;;6.68;100.00;102553.56;5038722;28;20468;-47
2022/09/21 00:23:09;;;;;;;19.43;18.43;;;;;;;6.66;100.00;102554.63;5049473;28;20770;-51
2022/09/21 00:25:37;;;;;;;19.30;18.40;;;;;;;6.63;100.00;102558.38;5052316;28;20521;-49
2022/09/21 00:28:06;;;;;;;19.00;18.00;;;;;;;6.60;100.00;102558.63;5052472;28;20451;-48
2022/09/21 00:30:34;;;;;;;18.77;17.97;;;;;;;6.58;100.00;102549.13;5052725;28;20485;-47
2022/09/21 00:33:02;;;;;;;18.40;17.70;;;;;;;6.54;100.00;102550.38;5052499;28;20439;-51
2022/09/21 00:35:29;;;;;;;17.50;16.97;;;;;;;6.50;100.00;102551.56;5052059;28;20585;-51
2022/09/21 00:38:00;;;;;;;17.83;17.13;;;;;;;6.46;100.00;102553.63;5052498;28;20853;-47
2022/09/21 00:40:28;;;;;;;17.97;17.37;;;;;;;6.46;100.00;102555.44;5052259;28;20467;-48
2022/09/21 00:43:14;;;;;;;19.13;18.43;;;;;;;6.47;100.00;102555.31;5052126;28;20497;-48
2022/09/21 00:45:42;;;;;;;18.80;18.10;;;;;;;6.47;100.00;102555.31;5051810;28;20984;-47
2022/09/21 00:48:10;;;;;;;20.00;18.90;;;;;;;6.46;100.00;102550.13;5052303;28;20443;-51
2022/09/21 00:50:45;;;;;;;19.33;18.63;;;;;;;6.43;100.00;102555.69;5052090;28;20435;-47
2022/09/21 00:53:14;;;;;;;18.97;18.03;;;;;;;6.42;100.00;102552.19;5052239;28;20411;-48
2022/09/21 00:55:45;;;;;;;19.77;18.90;;;;;;;6.39;100.00;102554.28;5051704;28;20992;-47
2022/09/21 00:58:19;;;;;;;19.33;18.60;;;;;;;6.38;100.00;102550.78;5052078;28;20419;-50
2022/09/21 01:00:47;;;;;;;19.60;18.90;;;;;;;6.36;100.00;102547.38;5052216;28;20517;-48
2022/09/21 01:03:14;;;;;;;20.03;19.13;;;;;;;6.33;100.00;102550.28;5051837;28;20523;-48
2022/09/21 01:05:42;;;;;;;19.33;18.63;;;;;;;6.31;100.00;102551.38;5051492;28;20451;-47
2022/09/21 01:08:11;;;;;;;20.80;19.70;;;;;;;6.30;100.00;102555.84;5052234;28;20427;-45
2022/09/21 01:10:55;;;;;;;20.47;19.67;;;;;;;6.29;100.00;102553.31;5051938;28;20439;-49
2022/09/21 01:13:37;;;;;;;19.93;19.00;;;;;;;6.28;100.00;102570.19;5051888;28;20473;-46
2022/09/21 01:16:10;;;;;;;19.90;19.10;;;;;;;6.29;100.00;102563.94;5051418;28;20463;-46
2022/09/21 01:18:46;;;;;;;19.97;18.90;;;;;;;6.26;100.00;102565.03;5050407;28;20497;-48
2022/09/21 01:21:18;;;;;;;20.27;19.43;;;;;;;6.22;100.00;102565.38;5040738;28;20471;-46
2022/09/21 01:24:05;;;;;;;20.63;19.73;;;;;;;6.19;100.00;102571.78;5051681;28;20419;-48
2022/09/21 01:26:48;;;;;;;20.53;19.53;;;;;;;6.18;100.00;102567.47;5051131;28;20872;-48
2022/09/21 01:29:23;;;;;;;20.80;20.00;;;;;;;6.16;100.00;102566.72;5051739;28;20426;-46
2022/09/21 01:31:58;;;;;;;22.00;20.70;;;;;;;6.16;100.00;102571.16;5051811;28;20419;-46
2022/09/21 01:34:30;;;;;;;20.17;19.47;;;;;;;6.14;100.00;102571.31;5050977;28;20434;-47
2022/09/21 01:37:03;;;;;;;20.70;19.50;;;;;;;6.11;100.00;102568.91;5051469;28;20439;-50
2022/09/21 01:39:33;;;;;;;20.73;19.90;;;;;;;6.09;100.00;102568.19;5051754;28;20431;-45
2022/09/21 01:42:05;;;;;;;20.80;19.90;;;;;;;6.07;100.00;102568.31;5051589;28;20486;-47
2022/09/21 01:44:38;;;;;;;20.83;20.03;;;;;;;6.04;100.00;102562.41;5051107;28;20493;-45
2022/09/21 01:47:09;;;;;;;20.60;19.60;;;;;;;6.03;100.00;102564.22;5051238;28;20458;-49
2022/09/21 01:49:40;;;;;;;21.63;20.53;;;;;;;6.02;100.00;102564.34;5051668;28;20431;-48
2022/09/21 01:52:13;;;;;;;21.90;20.93;;;;;;;6.01;100.00;102565.31;5051518;28;20846;-46
2022/09/21 01:54:45;;;;;;;22.10;21.03;;;;;;;6.00;100.00;102553.03;5051072;28;20520;-46
2022/09/21 01:57:20;;;;;;;22.27;21.17;;;;;;;6.02;100.00;102564.34;5051442;28;20482;-48
2022/09/21 01:59:52;;;;;;;22.37;21.30;;;;;;;6.01;100.00;102560.00;5051362;28;20427;-51
2022/09/21 02:02:26;;;;;;;22.50;21.20;;;;;;;6.00;100.00;102558.34;5051318;28;20521;-50
2022/09/21 02:04:54;;;;;;;21.80;20.90;;;;;;;6.00;100.00;102568.94;5050949;28;20492;-49
2022/09/21 02:07:22;;;;;;;21.47;20.67;;;;;;;5.99;100.00;102567.25;5051460;28;20447;-46
2022/09/21 02:09:49;;;;;;;22.50;21.50;;;;;;;6.00;100.00;102566.28;5051300;28;20481;-46
2022/09/21 02:12:17;;;;;;;21.17;20.37;;;;;;;5.98;100.00;102569.03;5050981;28;20423;-48
2022/09/21 02:14:46;;;;;;;21.10;20.23;;;;;;;5.98;100.00;102569.03;5050779;28;21041;-49
2022/09/21 02:17:29;;;;;;;21.43;20.53;;;;;;;5.97;100.00;102569.19;5051356;28;20481;-46
2022/09/21 02:20:07;;;;;;;21.00;20.20;;;;;;;5.96;100.00;102563.03;5045689;28;20549;-49
2022/09/21 02:22:41;;;;;;;21.20;20.40;;;;;;;5.94;100.00;102559.66;5042757;28;20524;-46
2022/09/21 02:25:12;;;;;;;20.87;19.80;;;;;;;5.93;100.00;102562.44;5050881;28;20516;-51
2022/09/21 02:27:49;;;;;;;22.03;21.07;;;;;;;5.87;100.00;102566.41;5051206;28;20799;-46
2022/09/21 02:30:19;;;;;;;21.77;20.80;;;;;;;5.84;100.00;102566.63;5051209;28;20435;-46
2022/09/21 02:32:57;;;;;;;21.63;20.73;;;;;;;5.81;100.00;102563.38;5050795;28;20435;-49
2022/09/21 02:35:32;;;;;;;21.60;20.60;;;;;;;5.79;100.00;102563.50;5050623;28;20463;-47
2022/09/21 02:38:08;;;;;;;22.13;21.23;;;;;;;5.75;100.00;102564.69;5051187;28;20450;-47
2022/09/21 02:40:42;;;;;;;21.83;20.90;;;;;;;5.73;100.00;102569.28;5051026;28;20435;-47
2022/09/21 02:43:19;;;;;;;22.00;21.20;;;;;;;5.71;100.00;102576.47;5053601;28;20434;-47
2022/09/21 02:45:52;;;;;;;21.87;20.90;;;;;;;5.71;100.00;102579.13;5054112;28;20466;-46
2022/09/21 02:48:27;;;;;;;21.20;20.40;;;;;;;5.69;100.00;102582.88;5054740;28;20431;-48
2022/09/21 02:50:58;;;;;;;21.30;20.40;;;;;;;5.68;100.00;102573.22;5054678;28;20430;-49
2022/09/21 02:53:30;;;;;;;23.03;21.73;;;;;;;5.68;100.00;102583.81;5054531;28;20431;-45
2022/09/21 02:56:01;;;;;;;22.30;21.20;;;;;;;5.68;100.00;102584.66;5053751;28;20492;-48
2022/09/21 02:58:30;;;;;;;22.50;21.50;;;;;;;5.69;100.00;102581.06;5054548;28;20843;-46
2022/09/21 03:00:59;;;;;;;21.73;20.90;;;;;;;5.68;100.00;102578.53;5054379;28;20475;-48
2022/09/21 03:03:28;;;;;;;20.93;20.13;;;;;;;5.66;100.00;102576.00;5054104;28;20805;-45
2022/09/21 03:05:56;;;;;;;22.43;21.43;;;;;;;5.65;100.00;102581.41;5053930;28;20516;-47
2022/09/21 03:08:24;;;;;;;22.53;21.43;;;;;;;5.60;100.00;102576.50;5054066;28;20431;-50
2022/09/21 03:10:52;;;;;;;21.60;20.50;;;;;;;5.57;100.00;102577.56;5054270;28;20439;-48
2022/09/21 03:13:20;;;;;;;21.00;20.10;;;;;;;5.56;100.00;102569.75;5051563;28;20851;-49
2022/09/21 03:15:48;;;;;;;21.60;20.70;;;;;;;5.56;100.00;102575.03;5039249;28;20513;-45
2022/09/21 03:18:15;;;;;;;21.40;20.50;;;;;;;5.56;100.00;102581.19;5036320;28;20463;-46
2022/09/21 03:20:45;;;;;;;22.00;20.90;;;;;;;5.56;100.00;102580.31;5043523;28;20860;-49
2022/09/21 03:23:14;;;;;;;22.37;21.47;;;;;;;5.57;100.00;102582.03;5050735;28;20481;-47
2022/09/21 03:25:44;;;;;;;22.70;21.63;;;;;;;5.56;100.00;102582.97;5053285;28;21054;-48
2022/09/21 03:28:12;;;;;;;22.83;21.80;;;;;;;5.55;100.00;102583.97;5053994;28;20497;-46
2022/09/21 03:30:40;;;;;;;22.50;21.47;;;;;;;5.53;100.00;102580.56;5053772;28;20813;-50
2022/09/21 03:33:08;;;;;;;24.83;23.53;;;;;;;5.53;100.00;102578.75;5053426;28;20557;-47
2022/09/21 03:35:36;;;;;;;23.07;22.07;;;;;;;5.51;100.00;102585.16;5053122;28;20836;-50
2022/09/21 03:38:05;;;;;;;22.60;21.60;;;;;;;5.50;100.00;102581.66;5053725;28;20448;-48
2022/09/21 03:40:33;;;;;;;22.03;21.13;;;;;;;5.49;100.00;102587.91;5053445;28;20477;-47
2022/09/21 03:43:01;;;;;;;24.10;22.80;;;;;;;5.48;100.00;102585.38;5053327;28;20471;-47
2022/09/21 03:45:28;;;;;;;22.67;21.37;;;;;;;5.46;100.00;102593.44;5052959;28;20467;-49
2022/09/21 03:47:57;;;;;;;22.90;21.90;;;;;;;5.45;100.00;102589.13;5053173;28;20521;-48
2022/09/21 03:50:27;;;;;;;22.70;21.70;;;;;;;5.45;100.00;102591.75;5053562;28;20494;-47
2022/09/21 03:52:55;;;;;;;22.00;21.10;;;;;;;5.42;100.00;102599.94;5053228;28;20428;-48
2022/09/21 03:55:24;;;;;;;22.20;21.30;;;;;;;5.41;100.00;102598.22;5052759;28;20463;-45
2022/09/21 03:57:52;;;;;;;23.10;22.10;;;;;;;5.39;100.00;102588.72;5053166;28;20501;-48
2022/09/21 04:00:20;;;;;;;22.30;21.30;;;;;;;5.38;100.00;102602.91;5053172;28;20489;-48
2022/09/21 04:02:47;;;;;;;21.47;20.57;;;;;;;5.36;100.00;102600.41;5053005;28;20541;-47
2022/09/21 04:05:16;;;;;;;21.73;20.93;;;;;;;5.36;100.00;102610.13;5052544;28;21007;-49
2022/09/21 04:07:45;;;;;;;21.50;20.70;;;;;;;5.33;100.00;102607.72;5053064;28;20529;-48
2022/09/21 04:10:14;;;;;;;21.40;20.60;;;;;;;5.30;100.00;102605.31;5053077;28;20443;-48
2022/09/21 04:12:44;;;;;;;20.63;19.83;;;;;;;5.28;100.00;102607.25;5052740;28;20505;-47
2022/09/21 04:15:14;;;;;;;21.30;20.50;;;;;;;5.25;100.00;102596.91;5052243;28;20979;-46
2022/09/21 04:17:42;;;;;;;21.10;20.30;;;;;;;5.23;100.00;102604.94;5052908;28;20895;-47
2022/09/21 04:20:10;;;;;;;21.63;20.73;;;;;;;5.19;100.00;102595.56;5047248;28;20485;-46
2022/09/21 04:22:38;;;;;;;22.10;21.00;;;;;;;5.18;100.00;102598.31;5044541;28;21218;-47
2022/09/21 04:25:11;;;;;;;22.27;21.37;;;;;;;5.18;100.00;102600.94;5052286;28;20467;-52
2022/09/21 04:27:39;;;;;;;23.07;22.17;;;;;;;5.17;100.00;102597.47;5052498;28;20497;-45
2022/09/21 04:30:12;;;;;;;22.20;21.20;;;;;;;5.18;100.00;102593.03;5052790;28;20443;-50
2022/09/21 04:32:40;;;;;;;22.60;21.70;;;;;;;5.18;100.00;102591.22;5052492;28;20482;-47
2022/09/21 04:35:08;;;;;;;22.03;21.13;;;;;;;5.17;100.00;102591.34;5052063;28;20530;-46
2022/09/21 04:37:36;;;;;;;22.50;21.60;;;;;;;5.15;100.00;102596.75;5052413;28;20452;-49
2022/09/21 04:40:05;;;;;;;23.10;22.20;;;;;;;5.13;100.00;102595.19;5052183;28;20933;-47
2022/09/21 04:42:32;;;;;;;22.17;21.03;;;;;;;5.11;100.00;102591.81;5052276;28;20506;-47
2022/09/21 04:45:00;;;;;;;23.07;22.10;;;;;;;5.10;100.00;102593.63;5051922;28;20912;-53
2022/09/21 04:47:30;;;;;;;23.30;22.30;;;;;;;5.09;100.00;102593.72;5052116;28;20459;-54
2022/09/21 04:49:58;;;;;;;22.33;21.43;;;;;;;5.06;100.00;102596.59;5052254;28;20936;-54
2022/09/21 04:52:26;;;;;;;22.60;21.30;;;;;;;5.06;100.00;102594.78;5051967;28;20427;-47
2022/09/21 04:54:53;;;;;;;22.90;21.90;;;;;;;5.06;100.00;102597.44;5051493;28;20999;-53
2022/09/21 04:57:21;;;;;;;23.30;22.30;;;;;;;5.06;100.00;102600.09;5051907;28;20455;-50
2022/09/21 04:59:49;;;;;;;22.50;21.47;;;;;;;5.06;100.00;102601.88;5052212;28;20439;-47
2022/09/21 05:02:16;;;;;;;22.63;21.73;;;;;;;5.03;100.00;102598.53;5052274;28;20467;-50
2022/09/21 05:04:45;;;;;;;23.60;22.60;;;;;;;5.02;100.00;102602.09;5051065;28;20459;-50
2022/09/21 05:07:17;;;;;;;22.23;21.43;;;;;;;5.01;100.00;102605.72;5051787;28;20983;-52
2022/09/21 05:10:02;;;;;;;23.80;22.80;;;;;;;5.01;100.00;102607.53;5051749;28;20928;-47
2022/09/21 05:12:30;;;;;;;21.80;20.90;;;;;;;5.01;100.00;102603.09;5051632;28;20921;-51
2022/09/21 05:14:58;;;;;;;22.13;21.30;;;;;;;5.04;100.00;102607.31;5051430;28;20798;-51
2022/09/21 05:17:26;;;;;;;22.17;21.17;;;;;;;5.09;100.00;102609.59;5051805;28;20451;-47
2022/09/21 05:19:55;;;;;;;23.93;22.43;;;;;;;5.12;100.00;102617.28;5045844;28;20443;-49
2022/09/21 05:22:23;;;;;;;22.53;21.40;;;;;;;5.15;100.00;102617.06;5043039;28;20467;-51
2022/09/21 05:24:51;;;;;;;23.00;22.00;;;;;;;5.17;100.00;102607.22;5051135;28;20467;-45
2022/09/21 05:27:18;;;;;;;21.97;21.07;;;;;;;5.17;100.00;102615.97;5051657;28;20505;-50
2022/09/21 05:29:46;;;;;;;23.60;22.60;;;;;;;5.22;100.00;102613.00;5051579;28;20435;-49
2022/09/21 05:32:21;;;;;;;23.13;22.03;;;;;;;5.50;100.00;102620.50;5051280;28;20477;-47
2022/09/21 05:35:00;;;;;;;22.67;21.57;;;;;;;6.23;100.00;102610.31;5051033;28;20991;-50
2022/09/21 05:37:42;;;;;;;23.20;22.00;;;;;;;7.13;100.00;102612.53;5051644;28;20447;-52
2022/09/21 05:40:12;;;;;;;25.07;23.67;;;;;;;7.97;100.00;102616.78;5051565;28;20493;-50
2022/09/21 05:42:40;;;;;;;23.67;22.57;;;;;;;8.71;100.00;102612.75;5051098;28;20577;-49
2022/09/21 05:45:14;;;;;;;24.17;22.97;;;;;;;9.48;100.00;102617.16;5051137;28;20884;-47
2022/09/21 05:47:53;;;;;;;24.77;23.47;;;;;;;10.17;100.00;102607.81;5051355;28;20880;-47
2022/09/21 05:50:48;;;;;;;23.77;22.73;;;;;;;10.85;100.00;102613.53;5051569;28;20940;-50
2022/09/21 05:53:29;;;;;;;23.70;22.40;;;;;;;11.40;100.00;102614.16;5041522;28;20434;-46
2022/09/21 05:55:59;;;;;;;23.03;22.10;;;;;;;11.94;100.00;102611.16;5050781;28;20870;-49
2022/09/21 05:58:36;;;;;;;24.50;23.00;;;;;;;12.39;100.00;102607.31;5051395;28;20435;-48
2022/09/21 06:01:18;;;;;;;22.53;21.63;;;;;;;12.95;100.00;102611.91;5051257;28;20435;-49
2022/09/21 06:03:48;;;;;;;23.10;22.10;;;;;;;13.44;100.00;102607.41;5051143;28;20475;-56
2022/09/21 06:06:18;;;;;;;23.00;22.00;;;;;;;13.89;100.00;102606.78;5050695;28;20505;-47
2022/09/21 06:08:45;;;;;;;20.93;20.13;;;;;;;14.35;100.00;102611.31;5051215;28;20434;-48
2022/09/21 06:11:14;;;;;;;20.10;19.20;;;;;;;14.80;98.51;102607.81;5051087;28;20435;-51
2022/09/21 06:13:42;;;;;;;21.13;20.03;;;;;;;15.19;92.04;102611.22;5050902;28;20478;-51
2022/09/21 06:16:09;;;;;;;19.40;18.60;;;;;;;15.63;89.87;102616.69;5050458;28;20471;-48
2022/09/21 06:18:38;;;;;;;19.93;19.03;;;;;;;16.07;88.24;102616.66;5053176;28;20986;-46
2022/09/21 06:21:06;;;;;;;18.60;17.80;;;;;;;16.35;83.22;102617.66;5042894;28;20952;-48
2022/09/21 06:23:35;;;;;;;17.90;17.10;;;;;;;16.74;81.20;102624.53;5034694;28;20490;-46
2022/09/21 06:26:03;;;;;;;17.93;17.13;;;;;;;17.11;79.86;102621.59;5034243;28;20517;-48
2022/09/21 06:28:31;;;;;;;15.90;15.30;;;;;;;17.15;75.36;102621.00;5034650;28;20998;-54
2022/09/21 06:30:59;;;;;;;16.57;14.40;;;;;;;17.29;74.24;102626.50;5035008;28;20432;-52
2022/09/21 06:33:27;;;;;;;12.53;11.93;;;;;;;17.36;73.05;102625.53;5034717;28;20427;-54
2022/09/21 06:35:56;;;;;;;12.10;11.50;;;;;;;17.54;73.36;102622.31;5034312;28;20521;-57
2022/09/21 06:38:24;;;;;;;9.97;9.37;;;;;;;17.69;71.86;102623.09;5034700;28;20493;-54
2022/09/21 06:40:54;;;;;;;8.87;8.40;;;;;;;17.83;70.33;102626.72;5034492;28;20497;-52
2022/09/21 06:43:21;;;;;;;7.63;7.00;;;;;;;18.04;70.54;102630.13;5034417;28;20474;-47
2022/09/21 06:45:53;;;;;;;7.73;7.23;;;;;;;18.18;69.58;102633.75;5033869;28;20530;-48
2022/09/21 06:48:21;;;;;;;8.40;7.80;;;;;;;18.25;68.56;102635.44;5034598;28;20432;-56
2022/09/21 06:50:49;;;;;;;8.30;7.67;;;;;;;18.13;66.46;102630.78;5034432;28;20865;-49
2022/09/21 06:53:17;;;;;;;6.87;6.30;;;;;;;18.13;67.40;102637.03;5034110;28;20427;-53
2022/09/21 06:55:45;;;;;;;7.80;7.00;;;;;;;18.05;67.80;102630.97;5033607;28;20833;-56
2022/09/21 06:58:13;;;;;;;7.10;6.80;;;;;;;17.89;67.71;102634.81;5034346;28;20448;-51
2022/09/21 07:00:41;;;;;;;9.13;8.50;;;;;;;17.58;66.94;102642.53;5034235;28;20828;-54
2022/09/21 07:03:10;;;;;;;7.80;7.10;;;;;;;17.34;68.53;102642.94;5033832;28;20544;-54
2022/09/21 07:05:38;;;;;;;8.33;7.53;;;;;;;17.05;69.70;102633.97;5033435;28;20813;-52
2022/09/21 07:08:06;;;;;;;7.73;7.13;;;;;;;16.84;71.01;102639.38;5033888;28;20452;-54
2022/09/21 07:10:57;;;;;;;7.90;7.30;;;;;;;16.58;71.89;102641.75;5034072;28;20475;-48
2022/09/21 07:13:27;;;;;;;6.80;6.50;;;;;;;16.31;72.25;102645.97;5033876;28;20451;-49
2022/09/21 07:15:55;;;;;;;9.90;9.10;;;;;;;15.89;71.96;102646.66;5033278;28;20468;-49
2022/09/21 07:18:23;;;;;;;9.97;9.07;;;;;;;15.57;72.70;102648.84;5033765;28;20431;-46
2022/09/21 07:20:50;;;;;;;9.57;8.97;;;;;;;15.34;74.69;102647.03;5036480;28;20440;-48
2022/09/21 07:23:21;;;;;;;9.50;8.90;;;;;;;15.30;77.44;102642.19;5051399;28;20475;-56
2022/09/21 07:25:51;;;;;;;9.97;9.23;;;;;;;15.42;80.04;102648.78;5053103;28;20604;-46
2022/09/21 07:28:19;;;;;;;10.33;9.53;;;;;;;15.54;81.26;102652.75;5053604;28;20480;-48
2022/09/21 07:30:48;;;;;;;10.03;9.43;;;;;;;15.61;80.85;102652.84;5053419;28;20493;-54
2022/09/21 07:33:16;;;;;;;9.73;9.00;;;;;;;15.70;82.11;102649.91;5053177;28;20484;-50
2022/09/21 07:35:50;;;;;;;18.77;10.17;;;;;;;16.03;83.09;102647.69;5053075;28;20879;-53
2022/09/21 07:38:18;;;;;;;22.30;9.20;;;;;;;16.37;82.78;102656.00;5053618;28;20496;-45
2022/09/21 07:40:45;;;;;;;8.60;7.90;;;;;;;16.70;81.50;102653.72;5053160;28;20774;-44
2022/09/21 07:43:13;;;;;;;9.90;9.17;;;;;;;17.01;81.70;102656.13;5053054;28;20986;-45
2022/09/21 07:45:41;;;;;;;9.40;8.80;;;;;;;17.10;79.53;102657.66;5052737;28;20462;-54
2022/09/21 07:48:10;;;;;;;8.13;7.53;;;;;;;17.17;78.24;102658.56;5053323;28;20805;-44
2022/09/21 07:50:37;;;;;;;8.70;8.30;;;;;;;16.89;74.63;102660.34;5052821;28;20458;-45
2022/09/21 07:53:05;;;;;;;9.30;8.70;;;;;;;16.58;73.76;102656.06;5052946;28;20464;-44
2022/09/21 07:55:32;;;;;;;9.53;8.87;;;;;;;16.36;75.64;102654.34;5052566;28;20485;-46
2022/09/21 08:00:45;;;;;;;9.10;8.40;;;;;;;15.89;76.64;102660.09;5053445;28;21034;-43
2022/09/21 08:03:14;;;;;;;10.40;9.50;;;;;;;15.73;79.19;102667.53;5052910;28;20431;-45
2022/09/21 08:05:42;;;;;;;9.40;8.60;;;;;;;15.70;82.28;102665.19;5052586;28;20505;-46
2022/09/21 08:08:09;;;;;;;9.77;8.77;;;;;;;15.56;81.94;102664.13;5052669;28;20451;-44
2022/09/21 08:10:38;;;;;;;9.20;8.60;;;;;;;15.49;82.96;102663.22;5052679;28;20489;-50
2022/09/21 08:13:05;;;;;;;9.47;8.83;;;;;;;15.35;82.67;102666.69;5052500;28;20438;-52
2022/09/21 08:15:33;;;;;;;10.00;9.30;;;;;;;15.26;84.08;102670.47;5052448;28;20505;-44
2022/09/21 08:18:17;;;;;;;9.50;8.90;;;;;;;15.25;85.83;102669.63;5052655;28;20951;-52
2022/09/21 08:20:53;;;;;;;9.60;9.00;;;;;;;15.14;85.29;102667.31;5041858;28;20945;-46
2022/09/21 08:23:21;;;;;;;10.33;9.53;;;;;;;15.22;87.33;102669.13;5050779;28;20489;-46
2022/09/21 08:25:48;;;;;;;9.77;8.97;;;;;;;15.34;87.60;102667.69;5051984;28;20471;-46
2022/09/21 08:28:17;;;;;;;10.43;9.60;;;;;;;15.40;86.83;102667.81;5052575;28;20427;-51
2022/09/21 08:30:44;;;;;;;14.67;11.87;;;;;;;15.48;87.64;102672.28;5052542;28;20439;-45
2022/09/21 08:33:12;;;;;;;10.03;9.10;;;;;;;15.36;87.37;102669.19;5052280;28;20439;-49
2022/09/21 08:35:41;;;;;;;10.83;10.10;;;;;;;15.47;89.81;102674.13;5051927;28;20581;-47
2022/09/21 08:38:08;;;;;;;11.03;10.23;;;;;;;15.62;88.60;102676.84;5052550;28;20509;-52
2022/09/21 08:40:40;;;;;;;9.37;8.70;;;;;;;15.61;86.34;102677.06;5051756;28;20489;-51
2022/09/21 08:43:12;;;;;;;10.17;9.27;;;;;;;15.71;85.97;102675.75;5052303;28;20489;-50
2022/09/21 08:45:43;;;;;;;9.27;8.53;;;;;;;15.89;86.53;102676.25;5051631;28;20475;-50
2022/09/21 08:48:18;;;;;;;10.53;9.77;;;;;;;15.91;83.51;102673.38;5052104;28;20981;-49
2022/09/21 08:50:54;;;;;;;9.23;8.63;;;;;;;16.00;85.88;102674.97;5052461;28;20447;-51
2022/09/21 08:53:29;;;;;;;8.50;7.90;;;;;;;15.89;83.53;102676.25;5051774;28;20423;-47
2022/09/21 08:55:57;;;;;;;8.63;8.13;;;;;;;16.05;85.51;102673.38;5051453;28;20879;-48
2022/09/21 08:58:27;;;;;;;8.60;8.10;;;;;;;16.30;86.28;102676.63;5051708;28;20435;-48
2022/09/21 09:01:08;;;;;;;9.30;8.50;;;;;;;16.40;81.72;102674.47;5052043;28;20443;-50
2022/09/21 09:03:53;;;;;;;8.50;8.00;;;;;;;16.51;81.18;102678.53;5051998;28;20431;-49
2022/09/21 09:06:32;;;;;;;7.87;7.40;;;;;;;16.54;81.48;102673.66;5051156;28;20473;-50
2022/09/21 09:09:17;;;;;;;8.70;8.10;;;;;;;16.82;82.48;102668.34;5051724;28;20427;-48
2022/09/21 09:11:57;;;;;;;7.10;6.70;;;;;;;17.11;82.01;102672.81;5051832;28;20435;-49
2022/09/21 09:14:40;;;;;;;8.10;7.37;;;;;;;17.12;76.83;102679.84;5050870;28;20427;-48
2022/09/21 09:17:36;;;;;;;7.37;7.00;;;;;;;17.04;75.06;102677.28;5051567;28;20506;-48
2022/09/21 09:20:11;;;;;;;7.60;7.10;;;;;;;17.02;78.26;102680.16;5045778;28;20435;-48
2022/09/21 09:22:44;;;;;;;7.27;6.97;;;;;;;17.24;79.18;102675.63;5043726;28;20426;-49
2022/09/21 09:25:19;;;;;;;7.33;6.93;;;;;;;17.23;73.73;102682.06;5050811;28;20980;-51
2022/09/21 09:27:50;;;;;;;7.67;7.23;;;;;;;17.26;75.30;102673.59;5051260;28;20445;-53
2022/09/21 09:30:20;;;;;;;8.40;7.80;;;;;;;17.28;74.92;102676.91;5051638;28;20443;-47
2022/09/21 09:32:57;;;;;;;7.23;6.83;;;;;;;17.34;77.18;102678.00;5051383;28;20479;-49
2022/09/21 09:35:28;;;;;;;6.93;6.40;;;;;;;17.24;71.01;102674.78;5050920;28;20524;-49
2022/09/21 09:38:03;;;;;;;6.93;6.63;;;;;;;17.35;72.98;102675.06;5051666;28;20447;-46
2022/09/21 09:40:48;;;;;;;6.70;6.40;;;;;;;17.54;74.77;102678.97;5051632;28;20850;-46
2022/09/21 09:43:25;;;;;;;8.83;8.07;;;;;;;17.73;76.14;102670.25;5051124;28;21047;-47
2022/09/21 09:46:03;;;;;;;6.27;5.97;;;;;;;17.96;74.59;102669.97;5050462;28;20474;-47
2022/09/21 09:48:54;;;;;;;6.60;6.20;;;;;;;18.10;72.97;102669.00;5051174;28;20481;-46
2022/09/21 09:51:22;;;;;;;8.30;7.60;;;;;;;18.20;71.08;102675.72;5053441;28;20855;-46
2022/09/21 09:53:59;;;;;;;8.30;8.00;;;;;;;18.39;70.25;102668.75;5055065;28;20912;-48
2022/09/21 09:56:27;;;;;;;8.53;8.13;;;;;;;18.47;68.35;102665.88;5054714;28;20519;-45
2022/09/21 09:59:02;;;;;;;9.13;8.27;;;;;;;18.70;69.68;102660.97;5055160;28;20435;-46
2022/09/21 10:01:37;;;;;;;9.23;8.67;;;;;;;18.74;67.66;102664.09;5055146;28;20557;-48
2022/09/21 10:04:07;;;;;;;9.10;8.50;;;;;;;18.74;66.05;102664.09;5055109;28;20804;-46
2022/09/21 10:06:35;;;;;;;8.90;8.60;;;;;;;18.84;66.44;102667.25;5054593;28;20485;-48
2022/09/21 10:09:19;;;;;;;9.33;8.93;;;;;;;18.83;65.58;102662.88;5055204;28;20516;-49
2022/09/21 10:11:47;;;;;;;8.67;8.47;;;;;;;18.76;63.01;102659.31;5054978;28;20479;-48
2022/09/21 10:14:20;;;;;;;9.27;8.60;;;;;;;18.78;64.15;102662.69;5054882;28;20838;-48
2022/09/21 10:16:50;;;;;;;8.97;8.67;;;;;;;18.89;63.52;102659.38;5054704;28;20443;-49
2022/09/21 10:19:22;;;;;;;9.20;8.50;;;;;;;19.04;63.09;102662.72;5049231;28;20486;-56
2022/09/21 10:21:56;;;;;;;8.40;8.00;;;;;;;19.11;63.54;102657.31;5046515;28;20423;-53
2022/09/21 10:24:28;;;;;;;8.07;7.80;;;;;;;19.23;61.23;102658.38;5054157;28;20422;-51
2022/09/21 10:27:05;;;;;;;7.80;7.50;;;;;;;19.35;61.88;102654.81;5055099;28;20454;-55
2022/09/21 10:29:40;;;;;;;7.80;7.60;;;;;;;19.55;62.32;102652.16;5054970;28;20426;-55
2022/09/21 10:32:21;;;;;;;7.33;7.10;;;;;;;19.66;60.39;102656.06;5054571;28;20422;-56
2022/09/21 10:35:22;;;;;;;9.70;7.73;;;;;;;19.75;59.14;102654.81;5054535;28;20469;-56
2022/09/21 10:38:09;;;;;;;7.40;7.20;;;;;;;19.71;55.81;102643.56;4992966;28;20498;-54
2022/09/21 10:40:39;;;;;;;6.80;6.50;;;;;;;19.78;58.87;102643.56;4993018;28;20824;-56
2022/09/21 10:43:22;;;;;;;6.67;6.47;;;;;;;19.79;52.63;102651.50;5029936;28;20804;-56
2022/09/21 10:45:56;;;;;;;5.73;5.53;;;;;;;19.28;53.42;102645.88;5053804;28;20988;-57
2022/09/21 10:48:25;;;;;;;5.50;5.30;;;;;;;18.98;54.95;102651.88;5054477;28;20472;-53
2022/09/21 10:50:55;;;;;;;5.50;5.30;;;;;;;18.83;57.06;102638.56;5053968;28;20839;-55
2022/09/21 10:53:27;;;;;;;5.63;5.43;;;;;;;18.85;58.55;102643.75;5054089;28;20434;-57
2022/09/21 10:56:02;;;;;;;5.67;5.33;;;;;;;18.68;59.98;102646.00;5053660;28;20867;-56
2022/09/21 10:59:10;;;;;;;5.77;5.50;;;;;;;18.64;60.40;102640.16;5054184;28;20454;-55
2022/09/21 11:01:43;;;;;;;5.13;4.83;;;;;;;18.53;58.26;102635.38;5053961;28;20442;-57
2022/09/21 11:04:17;;;;;;;5.27;4.97;;;;;;;18.81;57.69;102629.84;5053616;28;20427;-56
2022/09/21 11:06:48;;;;;;;5.00;4.70;;;;;;;18.70;58.20;102627.72;5053861;28;20475;-57
2022/09/21 11:09:21;;;;;;;5.20;4.90;;;;;;;18.59;58.30;102628.31;5054227;28;20431;-57
2022/09/21 11:11:56;;;;;;;5.00;4.70;;;;;;;18.98;59.38;102635.66;5053978;28;20435;-57
2022/09/21 11:14:43;;;;;;;4.90;4.80;;;;;;;19.52;58.79;102630.91;5053406;28;20435;-53
2022/09/21 11:17:17;;;;;;;4.80;4.60;;;;;;;19.55;57.18;102633.22;5054085;28;20450;-54
2022/09/21 11:19:51;;;;;;;4.70;4.50;;;;;;;19.57;53.33;102630.28;5048110;28;20443;-55
2022/09/21 11:22:25;;;;;;;4.70;4.50;;;;;;;19.00;55.25;102629.00;5045526;28;20465;-52
2022/09/21 11:25:23;;;;;;;4.37;4.27;;;;;;;19.44;57.16;102624.91;5053645;28;20869;-56
2022/09/21 11:28:00;;;;;;;4.27;4.17;;;;;;;19.85;55.92;102622.72;5053621;28;20446;-56
2022/09/21 11:30:40;;;;;;;4.23;4.13;;;;;;;20.12;54.24;102615.34;5053890;28;20791;-53
2022/09/21 11:33:21;;;;;;;4.50;4.40;;;;;;;20.23;50.96;102615.50;5053374;28;20426;-49
2022/09/21 11:36:02;;;;;;;4.10;4.00;;;;;;;20.29;52.55;102608.44;5052858;28;20975;-54
2022/09/21 11:38:43;;;;;;;4.50;4.07;;;;;;;20.49;52.62;102616.47;5053392;28;20422;-52